Kelly USA, Texas
Current Conditions -  °F | °C
As of 1:58 PM on Wednesday 26 Nov 2014 (Local Time) from KSKF Reporting Station
Clear Clear  
Wind Chill: 71°   Ceiling: Unl
Heat Index: 71°   Visibility: 10mi
Dew Point: 33°   Wind: 7mph
Humidity: 25%   Direction: 260°W
Pressure: 30.17"   Gusts: NA
Location:  29.3853°N, 98.6099°W
Report Text: KSKF 261958Z AUTO 26006KT 10SM CLR 22/01 A3017 RMK AO2 SLP216 T02150008 $
Loading
Personal Weather Stations






























Interactive Weather Map New forecast layout! Learn more

10-Day Weather Forecast

Advertisements
Track Severe Weather on mobile